Terminal Aerodrome Forecast
Issued by NWS Kansas City/Pleasant Hill, MO

Home | Current Version | Previous Version | Text Only | Print | Product List | Glossary On
Versions: 1 2 3 4 5 6 7 8 9 10 11 12 13 14 15 16 17 18 19 20
460
FTUS43 KEAX 300748 AAA
TAFMCI
TAF AMD
KMCI 300748Z 3008/3106 02008KT 4SM -TSRA BR SCT020CB BKN050
      TEMPO 3008/3009 2SM -TSRA BR BKN020CB
     FM300930 07005KT P6SM VCTS BKN050CB
     FM301300 09007KT P6SM BKN100=

USA.gov is the U.S. government's official web portal to all federal, state and local government web resources and services.